createdAt,value
2022-08-22T00:02:28.307Z,4.40
2022-08-22T00:02:45.056Z,5.00
2022-08-22T00:03:03.386Z,5.00
2022-08-22T00:03:08.939Z,5.20
2022-08-22T00:03:09.861Z,5.80
2022-08-22T00:05:18.297Z,4.40
2022-08-22T00:08:27.382Z,4.80
2022-08-22T00:11:07.776Z,4.90
2022-08-22T00:14:31.028Z,4.90
2022-08-22T00:17:16.652Z,4.50
2022-08-22T00:20:00.538Z,5.30
2022-08-22T00:23:10.996Z,4.80
2022-08-22T00:25:51.872Z,5.00
2022-08-22T00:28:23.448Z,5.00
2022-08-22T00:31:39.284Z,5.50
2022-08-22T00:34:29.377Z,5.30
2022-08-22T00:37:20.291Z,5.00
2022-08-22T00:40:12.497Z,5.10
2022-08-22T00:42:59.311Z,5.80
2022-08-22T00:46:10.485Z,5.50
2022-08-22T00:49:01.620Z,5.00
2022-08-22T00:52:04.138Z,5.20
2022-08-22T00:55:34.901Z,5.40
2022-08-22T00:58:59.152Z,5.00
2022-08-22T01:02:12.441Z,5.30
2022-08-22T01:05:02.607Z,6.10
2022-08-22T01:08:07.241Z,6.80
2022-08-22T01:10:46.920Z,8.00
2022-08-22T01:13:41.596Z,8.10
2022-08-22T01:16:40.867Z,9.50
2022-08-22T01:19:44.985Z,7.40
2022-08-22T01:22:48.520Z,8.10
2022-08-22T01:25:40.225Z,8.10
2022-08-22T01:28:34.414Z,7.40
2022-08-22T01:31:22.113Z,6.90
2022-08-22T01:34:26.804Z,7.10
2022-08-22T01:37:49.492Z,7.30
2022-08-22T01:40:53.477Z,8.10
2022-08-22T01:43:51.481Z,9.10
2022-08-22T01:46:48.296Z,10.00
2022-08-22T01:49:32.619Z,10.40
2022-08-22T01:52:10.755Z,10.10
2022-08-22T01:54:57.097Z,9.60
2022-08-22T01:57:25.668Z,9.20
2022-08-22T01:59:58.733Z,9.40
2022-08-22T02:03:13.015Z,9.10
2022-08-22T02:05:52.759Z,7.90
2022-08-22T02:08:32.987Z,8.30
2022-08-22T02:11:11.440Z,8.40
2022-08-22T02:13:45.743Z,8.50
2022-08-22T02:16:25.276Z,8.80
2022-08-22T02:19:20.550Z,8.00
2022-08-22T02:22:03.041Z,8.80
2022-08-22T02:24:32.674Z,8.30
2022-08-22T02:27:35.291Z,8.90
2022-08-22T02:30:15.632Z,9.20
2022-08-22T02:33:03.983Z,10.30
2022-08-22T02:35:51.816Z,8.70
2022-08-22T02:38:24.289Z,9.50
2022-08-22T02:41:05.449Z,9.30
2022-08-22T02:43:56.787Z,9.70
2022-08-22T02:46:54.183Z,9.40
2022-08-22T02:49:47.475Z,9.50
2022-08-22T02:55:15.116Z,7.40
2022-08-22T02:58:09.108Z,6.30
2022-08-22T03:01:16.563Z,5.90
2022-08-22T03:03:46.695Z,5.80
2022-08-22T03:06:16.480Z,5.80
2022-08-22T03:09:23.300Z,5.50
2022-08-22T03:12:13.459Z,4.70
2022-08-22T03:15:18.943Z,5.10
2022-08-22T03:18:27.491Z,5.00
2022-08-22T03:21:13.399Z,5.10
2022-08-22T03:24:14.679Z,6.20
2022-08-22T03:27:05.624Z,5.10
2022-08-22T03:29:47.432Z,5.00
2022-08-22T03:32:22.239Z,5.00
2022-08-22T03:35:02.422Z,5.60
2022-08-22T03:37:40.373Z,4.50
2022-08-22T03:40:19.127Z,5.70
2022-08-22T03:43:11.948Z,4.80
2022-08-22T03:46:11.449Z,5.10
2022-08-22T03:48:44.168Z,5.50
2022-08-22T03:52:07.196Z,5.10
2022-08-22T03:54:58.832Z,6.10
2022-08-22T03:57:31.684Z,6.20
2022-08-22T04:00:56.814Z,6.20
2022-08-22T04:04:03.016Z,6.30
2022-08-22T04:07:32.160Z,8.90
2022-08-22T04:10:21.037Z,6.80
2022-08-22T04:13:42.857Z,11.30
2022-08-22T04:16:49.456Z,9.20
2022-08-22T04:19:31.645Z,9.00
2022-08-22T04:22:39.951Z,8.00
2022-08-22T04:25:41.766Z,15.80
2022-08-22T04:28:10.230Z,13.00
2022-08-22T04:31:05.865Z,8.70
2022-08-22T04:34:12.029Z,9.10
2022-08-22T04:37:03.852Z,8.50
2022-08-22T04:39:43.591Z,9.60
2022-08-22T04:42:33.043Z,9.50
2022-08-22T04:45:18.692Z,8.60
2022-08-22T04:48:05.992Z,7.80
2022-08-22T04:50:49.108Z,8.90
2022-08-22T04:53:53.023Z,7.80
2022-08-22T04:56:48.718Z,9.00
2022-08-22T04:59:18.768Z,9.20
2022-08-22T05:01:58.620Z,9.00
2022-08-22T05:04:30.593Z,10.00
2022-08-22T05:07:26.591Z,10.40
2022-08-22T05:10:09.334Z,11.10
2022-08-22T05:12:45.376Z,11.00
2022-08-22T05:15:23.262Z,12.00
2022-08-22T05:17:55.492Z,12.20
2022-08-22T05:20:25.868Z,13.00
2022-08-22T05:23:05.905Z,13.10
2022-08-22T05:25:37.591Z,14.00
2022-08-22T05:28:17.128Z,16.90
2022-08-22T05:30:47.778Z,15.20
2022-08-22T05:33:26.282Z,15.70
2022-08-22T05:36:09.519Z,17.30
2022-08-22T05:38:45.500Z,16.10
2022-08-22T05:41:23.882Z,17.00
2022-08-22T05:43:53.154Z,13.90
2022-08-22T05:46:38.167Z,9.50
2022-08-22T05:49:32.304Z,9.00
2022-08-22T05:52:30.984Z,9.60
2022-08-22T05:55:19.560Z,8.40
2022-08-22T05:57:55.010Z,9.10
2022-08-22T06:00:27.840Z,9.00
2022-08-22T06:03:13.169Z,9.00
2022-08-22T06:05:45.042Z,10.20
2022-08-22T06:08:30.349Z,7.80
2022-08-22T06:11:05.136Z,9.10
2022-08-22T06:13:37.200Z,9.30
2022-08-22T06:16:36.927Z,9.00
2022-08-22T06:19:04.981Z,9.90
2022-08-22T06:24:24.248Z,8.00
2022-08-22T06:26:56.340Z,8.60
2022-08-22T06:29:50.670Z,7.60
2022-08-22T06:32:44.607Z,9.60
2022-08-22T06:35:59.429Z,8.60
2022-08-22T06:38:32.938Z,10.50
2022-08-22T06:41:07.368Z,8.70
2022-08-22T06:43:42.431Z,8.50
2022-08-22T06:46:12.700Z,9.20
2022-08-22T06:48:40.664Z,9.80
2022-08-22T06:51:08.286Z,10.70
2022-08-22T06:53:47.775Z,9.50
2022-08-22T06:56:25.885Z,9.70
2022-08-22T06:58:59.957Z,9.90
2022-08-22T07:01:35.200Z,10.30
2022-08-22T07:04:09.678Z,9.30
2022-08-22T07:06:42.633Z,10.00
2022-08-22T07:09:27.520Z,9.60
2022-08-22T07:11:58.883Z,8.70
2022-08-22T07:14:42.617Z,9.00
2022-08-22T07:17:18.608Z,10.10
2022-08-22T07:19:58.989Z,9.60
2022-08-22T07:22:31.813Z,9.40
2022-08-22T07:25:14.188Z,9.20
2022-08-22T07:27:54.692Z,9.60
2022-08-22T07:30:28.046Z,8.10
2022-08-22T07:33:30.334Z,6.80
2022-08-22T07:36:05.465Z,5.90
2022-08-22T07:38:44.998Z,5.20
2022-08-22T07:41:17.926Z,6.00
2022-08-22T07:43:51.288Z,6.00
2022-08-22T07:46:42.037Z,6.70
2022-08-22T07:49:23.988Z,6.00
2022-08-22T07:52:03.928Z,7.00
2022-08-22T07:54:47.767Z,5.70
2022-08-22T07:57:24.405Z,5.40
2022-08-22T07:59:54.886Z,5.10
2022-08-22T08:02:24.176Z,6.80
2022-08-22T08:04:54.446Z,10.30
2022-08-22T08:07:26.369Z,9.60
2022-08-22T08:10:07.972Z,8.20
2022-08-22T08:12:43.817Z,6.80
2022-08-22T08:15:23.259Z,6.50
2022-08-22T08:18:01.476Z,7.20
2022-08-22T08:20:29.826Z,6.70
2022-08-22T08:22:58.732Z,7.50
2022-08-22T08:25:29.146Z,7.90
2022-08-22T08:28:18.179Z,6.90
2022-08-22T08:30:54.751Z,7.00
2022-08-22T08:33:27.614Z,6.60
2022-08-22T08:36:55.323Z,7.10
2022-08-22T08:39:35.349Z,6.80
2022-08-22T08:43:12.173Z,6.90
2022-08-22T08:45:51.297Z,6.70
2022-08-22T08:49:11.774Z,7.90
2022-08-22T08:52:03.026Z,6.30
2022-08-22T08:55:21.811Z,6.10
2022-08-22T08:58:33.484Z,6.50
2022-08-22T09:01:06.416Z,8.10
2022-08-22T09:04:15.253Z,11.30
2022-08-22T09:06:54.795Z,6.00
2022-08-22T09:10:20.224Z,5.50
2022-08-22T09:12:56.064Z,7.00
2022-08-22T09:16:04.990Z,6.20
2022-08-22T09:19:01.716Z,6.90
2022-08-22T09:22:01.967Z,6.30
2022-08-22T09:24:57.524Z,6.00
2022-08-22T09:27:54.481Z,5.90
2022-08-22T09:30:32.488Z,5.20
2022-08-22T09:33:13.797Z,4.60
2022-08-22T09:36:17.813Z,4.80
2022-08-22T09:39:18.578Z,5.70
2022-08-22T09:42:02.677Z,5.30
2022-08-22T09:47:25.048Z,5.10
2022-08-22T09:50:23.981Z,5.40
2022-08-22T09:53:32.334Z,5.30
2022-08-22T09:56:38.561Z,5.10
2022-08-22T09:59:16.080Z,5.70
2022-08-22T10:01:58.521Z,5.40
2022-08-22T10:04:52.843Z,5.60
2022-08-22T10:08:00.877Z,5.80
2022-08-22T10:10:46.166Z,5.50
2022-08-22T10:13:31.639Z,6.30
2022-08-22T10:16:22.652Z,6.00
2022-08-22T10:19:23.764Z,5.80
2022-08-22T10:22:20.304Z,5.50
2022-08-22T10:25:06.892Z,5.70
2022-08-22T10:27:39.730Z,5.70
2022-08-22T10:32:51.601Z,5.70
2022-08-22T10:35:46.414Z,5.90
2022-08-22T10:38:31.832Z,5.60
2022-08-22T10:41:25.353Z,5.60
2022-08-22T10:44:16.631Z,5.40
2022-08-22T10:47:14.001Z,5.40
2022-08-22T10:49:59.922Z,5.70
2022-08-22T10:53:19.110Z,5.60
2022-08-22T10:56:09.169Z,5.50
2022-08-22T10:58:55.366Z,5.40
2022-08-22T11:01:41.052Z,4.80
2022-08-22T11:04:37.672Z,5.10
2022-08-22T11:08:00.560Z,4.60
2022-08-22T11:10:48.253Z,5.50
2022-08-22T11:13:32.866Z,4.90
2022-08-22T11:16:10.884Z,5.20
2022-08-22T11:19:02.558Z,4.50
2022-08-22T11:22:03.760Z,5.50
2022-08-22T11:24:35.657Z,5.10
2022-08-22T11:27:35.192Z,4.90
2022-08-22T11:30:18.585Z,5.60
2022-08-22T11:33:32.495Z,4.50
2022-08-22T11:36:40.976Z,4.50
2022-08-22T11:39:33.037Z,5.80
2022-08-22T11:42:08.264Z,4.40
2022-08-22T11:45:11.665Z,4.60
2022-08-22T11:48:02.082Z,4.50
2022-08-22T11:50:45.277Z,4.50
2022-08-22T11:53:41.555Z,4.60
2022-08-22T11:56:52.814Z,4.50
2022-08-22T11:59:32.562Z,4.50
2022-08-22T12:02:12.545Z,3.90
2022-08-22T12:04:54.630Z,4.60
2022-08-22T12:07:31.271Z,4.40
2022-08-22T12:10:08.728Z,4.40
2022-08-22T12:15:24.433Z,4.70
2022-08-22T12:18:25.027Z,3.90
2022-08-22T12:21:21.594Z,3.90
2022-08-22T12:24:19.150Z,3.90
2022-08-22T12:27:35.744Z,3.90
2022-08-22T12:30:27.904Z,4.30
2022-08-22T12:33:35.309Z,4.10
2022-08-22T12:36:20.237Z,3.70
2022-08-22T12:39:23.785Z,4.20
2022-08-22T12:42:35.106Z,3.80
2022-08-22T12:45:44.771Z,4.40
2022-08-22T12:48:38.189Z,3.90
2022-08-22T12:51:35.861Z,3.40
2022-08-22T12:54:49.080Z,3.80
2022-08-22T13:00:43.270Z,3.40
2022-08-22T13:03:31.625Z,3.40
2022-08-22T13:06:25.388Z,3.50
2022-08-22T13:08:53.782Z,3.40
2022-08-22T13:11:23.158Z,3.60
2022-08-22T13:13:57.130Z,3.20
2022-08-22T13:16:38.762Z,3.30
2022-08-22T13:19:16.465Z,2.60
2022-08-22T13:21:52.510Z,3.00
2022-08-22T13:24:40.946Z,2.70
2022-08-22T13:27:50.753Z,2.80
2022-08-22T13:30:34.426Z,2.80
2022-08-22T13:33:35.432Z,2.60
2022-08-22T13:36:07.787Z,2.70
2022-08-22T13:38:57.282Z,2.40
2022-08-22T13:41:42.632Z,3.10
2022-08-22T13:44:24.092Z,2.80
2022-08-22T13:47:13.013Z,2.50
2022-08-22T13:49:52.916Z,2.80
2022-08-22T13:52:52.224Z,2.80
2022-08-22T13:55:49.104Z,2.90
2022-08-22T13:58:38.825Z,3.00
2022-08-22T14:01:20.946Z,3.20
2022-08-22T14:04:32.327Z,3.30
2022-08-22T14:07:03.147Z,2.60
2022-08-22T14:09:58.380Z,3.30
2022-08-22T14:12:49.920Z,3.20
2022-08-22T14:15:33.072Z,3.20
2022-08-22T14:18:35.365Z,3.40
2022-08-22T14:21:41.273Z,2.80
2022-08-22T14:24:45.922Z,3.20
2022-08-22T14:27:26.879Z,3.50
2022-08-22T14:30:01.862Z,3.20
2022-08-22T14:32:47.540Z,3.70
2022-08-22T14:35:44.556Z,3.20
2022-08-22T14:38:30.432Z,3.20
2022-08-22T14:41:09.885Z,3.70
2022-08-22T14:44:07.003Z,6.10
2022-08-22T14:46:55.638Z,4.40
2022-08-22T14:49:32.128Z,3.70
2022-08-22T14:52:09.608Z,3.70
2022-08-22T14:54:38.353Z,3.00
2022-08-22T14:57:19.802Z,3.10
2022-08-22T14:59:51.749Z,3.80
2022-08-22T15:02:32.351Z,4.50
2022-08-22T15:05:17.632Z,4.40
2022-08-22T15:07:58.732Z,3.20
2022-08-22T15:10:34.118Z,3.80
2022-08-22T15:13:07.762Z,3.80
2022-08-22T15:15:54.381Z,4.20
2022-08-22T15:18:26.765Z,4.20
2022-08-22T15:21:32.097Z,3.10
2022-08-22T15:24:09.139Z,4.00
2022-08-22T15:26:51.560Z,2.70
2022-08-22T15:29:35.863Z,3.00
2022-08-22T15:32:03.804Z,3.20
2022-08-22T15:34:45.228Z,3.30
2022-08-22T15:37:17.946Z,3.00
2022-08-22T15:40:11.683Z,3.00
2022-08-22T15:42:44.116Z,3.70
2022-08-22T15:45:33.769Z,3.40
2022-08-22T15:48:07.285Z,3.80
2022-08-22T15:50:36.666Z,4.50
2022-08-22T15:53:24.455Z,5.30
2022-08-22T15:56:06.426Z,3.80
2022-08-22T15:58:39.754Z,3.30
2022-08-22T16:01:22.294Z,3.30
2022-08-22T16:04:07.909Z,3.20
2022-08-22T16:06:54.408Z,3.50
2022-08-22T16:09:46.562Z,3.30
2022-08-22T16:12:47.167Z,3.40
2022-08-22T16:15:52.624Z,3.80
2022-08-22T16:18:36.328Z,3.60
2022-08-22T16:21:07.549Z,4.00
2022-08-22T16:23:49.847Z,3.70
2022-08-22T16:26:20.229Z,3.70
2022-08-22T16:28:59.319Z,3.90
2022-08-22T16:31:44.165Z,4.00
2022-08-22T16:34:17.201Z,3.20
2022-08-22T16:37:02.513Z,3.10
2022-08-22T16:39:36.675Z,3.40
2022-08-22T16:42:12.725Z,3.10
2022-08-22T16:45:07.780Z,3.30
2022-08-22T16:47:40.930Z,3.50
2022-08-22T16:50:22.745Z,3.30
2022-08-22T16:53:26.217Z,3.80
2022-08-22T16:56:28.797Z,3.10
2022-08-22T16:59:14.085Z,3.20
2022-08-22T17:02:29.716Z,3.10
2022-08-22T17:05:09.155Z,3.10
2022-08-22T17:08:24.457Z,3.10
2022-08-22T17:11:12.573Z,3.30
2022-08-22T17:14:18.701Z,2.70
2022-08-22T17:17:35.383Z,3.20
2022-08-22T17:20:36.722Z,3.60
2022-08-22T17:23:28.071Z,2.70
2022-08-22T17:26:29.256Z,4.30
2022-08-22T17:29:58.687Z,2.90
2022-08-22T17:33:23.480Z,2.70
2022-08-22T17:36:26.533Z,2.50
2022-08-22T17:39:15.848Z,2.70
2022-08-22T17:42:20.948Z,2.10
2022-08-22T17:45:12.959Z,2.90
2022-08-22T17:47:49.327Z,2.70
2022-08-22T17:50:16.054Z,2.70
2022-08-22T17:53:02.575Z,2.80
2022-08-22T17:56:11.585Z,2.60
2022-08-22T17:59:11.196Z,2.90
2022-08-22T18:01:58.161Z,3.40
2022-08-22T18:04:58.482Z,2.90
2022-08-22T18:07:55.706Z,2.70
2022-08-22T18:11:08.379Z,3.50
2022-08-22T18:13:56.707Z,2.90
2022-08-22T18:16:46.463Z,2.90
2022-08-22T18:19:38.049Z,3.10
2022-08-22T18:22:24.256Z,3.00
2022-08-22T18:25:07.146Z,3.10
2022-08-22T18:28:23.576Z,3.40
2022-08-22T18:31:33.235Z,3.70
2022-08-22T18:35:02.685Z,3.20
2022-08-22T18:37:32.875Z,4.00
2022-08-22T18:40:20.009Z,3.50
2022-08-22T18:43:23.443Z,4.00
2022-08-22T18:48:33.604Z,4.40
2022-08-22T18:51:38.390Z,4.50
2022-08-22T18:54:06.316Z,4.50
2022-08-22T18:56:57.733Z,4.70
2022-08-22T19:00:16.707Z,4.30
2022-08-22T19:03:13.808Z,3.90
2022-08-22T19:06:08.008Z,3.40
2022-08-22T19:09:19.528Z,3.60
2022-08-22T19:12:25.777Z,3.70
2022-08-22T19:15:27.694Z,3.60
2022-08-22T19:18:06.288Z,3.70
2022-08-22T19:20:56.440Z,3.80
2022-08-22T19:23:32.079Z,3.50
2022-08-22T19:26:23.213Z,3.50
2022-08-22T19:29:04.254Z,3.50
2022-08-22T19:31:35.408Z,3.60
2022-08-22T19:34:34.851Z,3.40
2022-08-22T19:37:30.908Z,3.50
2022-08-22T19:40:08.915Z,2.80
2022-08-22T19:42:42.699Z,2.60
2022-08-22T19:45:28.028Z,2.50
2022-08-22T19:48:09.442Z,2.60
2022-08-22T19:50:38.934Z,2.60
2022-08-22T19:53:21.901Z,2.80
2022-08-22T19:56:12.938Z,2.50
2022-08-22T19:59:28.480Z,2.50
2022-08-22T20:02:19.240Z,2.40
2022-08-22T20:05:03.349Z,2.40
2022-08-22T20:07:36.375Z,2.60
2022-08-22T20:10:31.652Z,2.90
2022-08-22T20:13:17.393Z,2.60
2022-08-22T20:16:43.420Z,2.60
2022-08-22T20:19:18.915Z,2.20
2022-08-22T20:21:57.738Z,3.10
2022-08-22T20:24:44.048Z,2.30
2022-08-22T20:27:32.473Z,2.40
2022-08-22T20:30:28.565Z,2.90
2022-08-22T20:33:08.443Z,2.90
2022-08-22T20:35:50.752Z,3.60
2022-08-22T20:38:23.740Z,3.20
2022-08-22T20:41:21.011Z,3.20
2022-08-22T20:43:55.268Z,3.30
2022-08-22T20:46:38.513Z,3.20
2022-08-22T20:49:24.599Z,2.90
2022-08-22T20:51:57.835Z,3.10
2022-08-22T20:54:29.965Z,3.40
2022-08-22T20:57:13.365Z,3.60
2022-08-22T20:59:53.117Z,3.50
2022-08-22T21:02:38.385Z,3.50
2022-08-22T21:05:21.788Z,3.20
2022-08-22T21:08:24.557Z,4.10
2022-08-22T21:11:18.779Z,3.50
2022-08-22T21:13:46.561Z,3.70
2022-08-22T21:16:13.480Z,4.10
2022-08-22T21:18:45.969Z,4.00
2022-08-22T21:21:18.839Z,3.50
2022-08-22T21:26:27.131Z,3.50
2022-08-22T21:28:53.857Z,4.10
2022-08-22T21:31:26.552Z,4.10
2022-08-22T21:33:55.692Z,3.20
2022-08-22T21:36:30.313Z,3.50
2022-08-22T21:39:05.868Z,3.70
2022-08-22T21:41:43.336Z,3.60
2022-08-22T21:44:41.908Z,3.60
2022-08-22T21:47:31.243Z,3.50
2022-08-22T21:50:31.100Z,3.10
2022-08-22T21:53:27.185Z,3.40
2022-08-22T21:56:13.205Z,3.70
2022-08-22T21:58:41.275Z,3.40
2022-08-22T22:01:32.197Z,3.50
2022-08-22T22:03:59.515Z,3.70
2022-08-22T22:06:26.733Z,3.20
2022-08-22T22:08:54.623Z,3.20
2022-08-22T22:11:21.521Z,3.80
2022-08-22T22:13:48.403Z,4.10
2022-08-22T22:16:27.008Z,3.50
2022-08-22T22:18:54.422Z,3.50
2022-08-22T22:21:21.385Z,3.70
2022-08-22T22:23:49.958Z,3.40
2022-08-22T22:26:16.897Z,4.10
2022-08-22T22:28:47.730Z,3.00
2022-08-22T22:31:17.632Z,3.20
2022-08-22T22:33:45.529Z,3.80
2022-08-22T22:36:24.676Z,2.90
2022-08-22T22:38:53.345Z,3.20
2022-08-22T22:41:24.793Z,3.30
2022-08-22T22:43:54.308Z,3.40
2022-08-22T22:46:22.787Z,3.40
2022-08-22T22:48:49.933Z,3.90
2022-08-22T22:51:16.736Z,3.10
2022-08-22T22:53:44.292Z,3.80
2022-08-22T22:56:15.758Z,3.20
2022-08-22T22:58:43.494Z,3.20
2022-08-22T23:01:23.886Z,3.30
2022-08-22T23:03:57.797Z,2.80
2022-08-22T23:06:27.718Z,2.90
2022-08-22T23:08:55.536Z,3.40
2022-08-22T23:11:28.344Z,2.80
2022-08-22T23:13:55.865Z,3.00
2022-08-22T23:16:27.728Z,3.00
2022-08-22T23:18:55.686Z,3.00
2022-08-22T23:21:27.346Z,3.30
2022-08-22T23:23:57.866Z,2.80
2022-08-22T23:26:25.648Z,2.80
2022-08-22T23:28:52.534Z,2.80
2022-08-22T23:31:31.202Z,2.80
2022-08-22T23:34:05.631Z,3.30
2022-08-22T23:36:33.597Z,3.10
2022-08-22T23:39:00.441Z,4.50
2022-08-22T23:41:27.441Z,3.00
2022-08-22T23:43:54.862Z,2.80
2022-08-22T23:46:24.560Z,2.90
2022-08-22T23:48:52.414Z,2.80
2022-08-22T23:51:23.210Z,3.00
2022-08-22T23:53:52.789Z,3.00
2022-08-22T23:56:31.874Z,3.40
2022-08-22T23:59:03.873Z,3.00
